sensor_id;sensor_type;location;lat;lon;timestamp;P1;durP1;ratioP1;P2;durP2;ratioP2
10811;SDS011;5458;51.496;7.334;2022-08-01T00:01:50;20.27;;;16.73;;
10811;SDS011;5458;51.496;7.334;2022-08-01T00:04:16;22.20;;;16.60;;
10811;SDS011;5458;51.496;7.334;2022-08-01T00:06:41;17.20;;;15.43;;
10811;SDS011;5458;51.496;7.334;2022-08-01T00:09:07;18.73;;;16.73;;
10811;SDS011;5458;51.496;7.334;2022-08-01T00:11:32;18.63;;;16.60;;
10811;SDS011;5458;51.496;7.334;2022-08-01T00:13:58;17.10;;;15.40;;
10811;SDS011;5458;51.496;7.334;2022-08-01T00:16:24;17.50;;;15.68;;
10811;SDS011;5458;51.496;7.334;2022-08-01T00:18:50;17.30;;;15.50;;
10811;SDS011;5458;51.496;7.334;2022-08-01T00:21:16;17.17;;;15.32;;
10811;SDS011;5458;51.496;7.334;2022-08-01T00:23:42;18.40;;;16.02;;
10811;SDS011;5458;51.496;7.334;2022-08-01T00:26:10;18.63;;;16.80;;
10811;SDS011;5458;51.496;7.334;2022-08-01T00:28:36;16.23;;;14.48;;
10811;SDS011;5458;51.496;7.334;2022-08-01T00:31:01;16.52;;;14.77;;
10811;SDS011;5458;51.496;7.334;2022-08-01T00:33:27;17.65;;;14.30;;
10811;SDS011;5458;51.496;7.334;2022-08-01T00:35:53;15.88;;;14.27;;
10811;SDS011;5458;51.496;7.334;2022-08-01T00:38:18;17.58;;;15.75;;
10811;SDS011;5458;51.496;7.334;2022-08-01T00:40:44;17.77;;;16.05;;
10811;SDS011;5458;51.496;7.334;2022-08-01T00:43:09;19.70;;;17.33;;
10811;SDS011;5458;51.496;7.334;2022-08-01T00:45:35;23.08;;;19.80;;
10811;SDS011;5458;51.496;7.334;2022-08-01T00:48:01;22.58;;;20.15;;
10811;SDS011;5458;51.496;7.334;2022-08-01T00:50:26;23.35;;;20.25;;
10811;SDS011;5458;51.496;7.334;2022-08-01T00:52:53;23.90;;;20.90;;
10811;SDS011;5458;51.496;7.334;2022-08-01T00:55:19;24.40;;;21.42;;
10811;SDS011;5458;51.496;7.334;2022-08-01T00:57:45;24.13;;;21.52;;
10811;SDS011;5458;51.496;7.334;2022-08-01T01:00:13;21.38;;;18.90;;
10811;SDS011;5458;51.496;7.334;2022-08-01T01:02:39;21.90;;;19.67;;
10811;SDS011;5458;51.496;7.334;2022-08-01T01:05:04;23.65;;;19.45;;
10811;SDS011;5458;51.496;7.334;2022-08-01T01:07:41;22.77;;;20.25;;
10811;SDS011;5458;51.496;7.334;2022-08-01T01:10:23;26.35;;;21.70;;
10811;SDS011;5458;51.496;7.334;2022-08-01T01:13:02;25.05;;;20.73;;
10811;SDS011;5458;51.496;7.334;2022-08-01T01:15:30;26.40;;;22.40;;
10811;SDS011;5458;51.496;7.334;2022-08-01T01:18:06;27.00;;;23.60;;
10811;SDS011;5458;51.496;7.334;2022-08-01T01:20:47;27.40;;;23.65;;
10811;SDS011;5458;51.496;7.334;2022-08-01T01:31:26;30.63;;;25.48;;
10811;SDS011;5458;51.496;7.334;2022-08-01T01:33:54;31.35;;;26.30;;
10811;SDS011;5458;51.496;7.334;2022-08-01T01:36:22;30.38;;;26.25;;
10811;SDS011;5458;51.496;7.334;2022-08-01T01:38:51;30.10;;;25.63;;
10811;SDS011;5458;51.496;7.334;2022-08-01T01:41:18;29.50;;;25.52;;
10811;SDS011;5458;51.496;7.334;2022-08-01T01:43:45;27.40;;;23.65;;
10811;SDS011;5458;51.496;7.334;2022-08-01T01:46:12;29.20;;;24.08;;
10811;SDS011;5458;51.496;7.334;2022-08-01T01:48:43;25.75;;;22.73;;
10811;SDS011;5458;51.496;7.334;2022-08-01T01:51:10;25.52;;;22.42;;
10811;SDS011;5458;51.496;7.334;2022-08-01T01:53:36;23.88;;;21.38;;
10811;SDS011;5458;51.496;7.334;2022-08-01T01:56:04;23.73;;;21.23;;
10811;SDS011;5458;51.496;7.334;2022-08-01T01:58:31;23.77;;;21.25;;
10811;SDS011;5458;51.496;7.334;2022-08-01T02:00:59;26.83;;;21.45;;
10811;SDS011;5458;51.496;7.334;2022-08-01T02:03:27;22.70;;;20.30;;
10811;SDS011;5458;51.496;7.334;2022-08-01T02:05:53;25.48;;;21.90;;
10811;SDS011;5458;51.496;7.334;2022-08-01T02:08:20;27.92;;;22.90;;
10811;SDS011;5458;51.496;7.334;2022-08-01T02:10:48;25.83;;;21.48;;
10811;SDS011;5458;51.496;7.334;2022-08-01T02:13:36;23.83;;;21.38;;
10811;SDS011;5458;51.496;7.334;2022-08-01T02:16:03;24.65;;;20.70;;
10811;SDS011;5458;51.496;7.334;2022-08-01T02:18:30;25.88;;;21.23;;
10811;SDS011;5458;51.496;7.334;2022-08-01T02:20:56;22.45;;;20.05;;
10811;SDS011;5458;51.496;7.334;2022-08-01T02:23:24;24.17;;;20.50;;
10811;SDS011;5458;51.496;7.334;2022-08-01T02:25:58;27.38;;;22.98;;
10811;SDS011;5458;51.496;7.334;2022-08-01T02:28:29;27.38;;;23.08;;
10811;SDS011;5458;51.496;7.334;2022-08-01T02:31:01;26.15;;;22.30;;
10811;SDS011;5458;51.496;7.334;2022-08-01T02:33:36;30.00;;;22.55;;
10811;SDS011;5458;51.496;7.334;2022-08-01T02:36:04;26.88;;;21.10;;
10811;SDS011;5458;51.496;7.334;2022-08-01T02:38:33;25.20;;;21.42;;
10811;SDS011;5458;51.496;7.334;2022-08-01T02:41:03;27.23;;;22.70;;
10811;SDS011;5458;51.496;7.334;2022-08-01T02:43:34;27.85;;;23.17;;
10811;SDS011;5458;51.496;7.334;2022-08-01T02:46:04;27.05;;;22.08;;
10811;SDS011;5458;51.496;7.334;2022-08-01T02:48:31;28.00;;;21.45;;
10811;SDS011;5458;51.496;7.334;2022-08-01T02:51:00;31.20;;;23.40;;
10811;SDS011;5458;51.496;7.334;2022-08-01T02:53:31;27.33;;;21.40;;
10811;SDS011;5458;51.496;7.334;2022-08-01T02:56:01;28.13;;;21.40;;
10811;SDS011;5458;51.496;7.334;2022-08-01T02:58:29;30.40;;;21.85;;
10811;SDS011;5458;51.496;7.334;2022-08-01T03:00:55;28.90;;;22.02;;
10811;SDS011;5458;51.496;7.334;2022-08-01T03:03:22;27.60;;;22.73;;
10811;SDS011;5458;51.496;7.334;2022-08-01T03:05:49;27.65;;;23.05;;
10811;SDS011;5458;51.496;7.334;2022-08-01T03:08:15;29.35;;;22.42;;
10811;SDS011;5458;51.496;7.334;2022-08-01T03:10:44;31.67;;;23.40;;
10811;SDS011;5458;51.496;7.334;2022-08-01T03:13:11;30.20;;;22.95;;
10811;SDS011;5458;51.496;7.334;2022-08-01T03:15:38;36.55;;;24.52;;
10811;SDS011;5458;51.496;7.334;2022-08-01T03:18:06;27.02;;;21.35;;
10811;SDS011;5458;51.496;7.334;2022-08-01T03:20:34;23.85;;;19.98;;
10811;SDS011;5458;51.496;7.334;2022-08-01T03:23:01;25.63;;;18.67;;
10811;SDS011;5458;51.496;7.334;2022-08-01T03:25:31;19.52;;;15.90;;
10811;SDS011;5458;51.496;7.334;2022-08-01T03:27:59;16.73;;;13.10;;
10811;SDS011;5458;51.496;7.334;2022-08-01T03:30:28;14.90;;;12.60;;
10811;SDS011;5458;51.496;7.334;2022-08-01T03:32:55;17.48;;;12.48;;
10811;SDS011;5458;51.496;7.334;2022-08-01T03:35:22;13.82;;;12.18;;
10811;SDS011;5458;51.496;7.334;2022-08-01T03:37:52;17.08;;;13.32;;
10811;SDS011;5458;51.496;7.334;2022-08-01T03:40:22;16.85;;;13.82;;
10811;SDS011;5458;51.496;7.334;2022-08-01T03:42:52;18.33;;;15.70;;
10811;SDS011;5458;51.496;7.334;2022-08-01T03:45:24;22.45;;;18.10;;
10811;SDS011;5458;51.496;7.334;2022-08-01T03:47:53;22.13;;;17.45;;
10811;SDS011;5458;51.496;7.334;2022-08-01T03:50:24;22.77;;;18.25;;
10811;SDS011;5458;51.496;7.334;2022-08-01T03:52:51;25.00;;;18.52;;
10811;SDS011;5458;51.496;7.334;2022-08-01T03:55:19;20.92;;;17.13;;
10811;SDS011;5458;51.496;7.334;2022-08-01T03:57:46;24.63;;;18.35;;
10811;SDS011;5458;51.496;7.334;2022-08-01T04:00:13;25.20;;;18.98;;
10811;SDS011;5458;51.496;7.334;2022-08-01T04:02:43;24.65;;;17.90;;
10811;SDS011;5458;51.496;7.334;2022-08-01T04:05:14;25.85;;;17.45;;
10811;SDS011;5458;51.496;7.334;2022-08-01T04:07:44;25.05;;;18.05;;
10811;SDS011;5458;51.496;7.334;2022-08-01T04:10:11;25.23;;;17.83;;
10811;SDS011;5458;51.496;7.334;2022-08-01T04:12:37;25.05;;;17.95;;
10811;SDS011;5458;51.496;7.334;2022-08-01T04:15:03;27.15;;;18.58;;
10811;SDS011;5458;51.496;7.334;2022-08-01T04:17:30;25.20;;;19.33;;
10811;SDS011;5458;51.496;7.334;2022-08-01T04:19:55;25.13;;;19.27;;
10811;SDS011;5458;51.496;7.334;2022-08-01T04:22:21;23.23;;;17.83;;
10811;SDS011;5458;51.496;7.334;2022-08-01T04:24:47;26.70;;;19.75;;
10811;SDS011;5458;51.496;7.334;2022-08-01T04:27:19;24.88;;;19.63;;
10811;SDS011;5458;51.496;7.334;2022-08-01T04:29:53;27.98;;;19.95;;
10811;SDS011;5458;51.496;7.334;2022-08-01T04:32:23;26.38;;;18.40;;
10811;SDS011;5458;51.496;7.334;2022-08-01T04:34:50;24.10;;;18.83;;
10811;SDS011;5458;51.496;7.334;2022-08-01T04:37:20;23.45;;;18.63;;
10811;SDS011;5458;51.496;7.334;2022-08-01T04:39:48;25.98;;;19.50;;
10811;SDS011;5458;51.496;7.334;2022-08-01T04:42:17;23.95;;;18.48;;
10811;SDS011;5458;51.496;7.334;2022-08-01T04:44:44;23.02;;;18.15;;
10811;SDS011;5458;51.496;7.334;2022-08-01T04:47:10;26.33;;;17.40;;
10811;SDS011;5458;51.496;7.334;2022-08-01T04:49:37;25.15;;;18.05;;
10811;SDS011;5458;51.496;7.334;2022-08-01T04:52:03;23.63;;;17.00;;
10811;SDS011;5458;51.496;7.334;2022-08-01T04:54:31;21.83;;;15.93;;
10811;SDS011;5458;51.496;7.334;2022-08-01T04:56:59;23.58;;;16.38;;
10811;SDS011;5458;51.496;7.334;2022-08-01T04:59:28;20.23;;;16.20;;
10811;SDS011;5458;51.496;7.334;2022-08-01T05:04:33;19.80;;;14.68;;
10811;SDS011;5458;51.496;7.334;2022-08-01T05:06:59;16.00;;;13.43;;
10811;SDS011;5458;51.496;7.334;2022-08-01T05:09:25;17.73;;;13.38;;
10811;SDS011;5458;51.496;7.334;2022-08-01T05:11:51;17.30;;;13.10;;
10811;SDS011;5458;51.496;7.334;2022-08-01T05:14:16;17.42;;;13.73;;
10811;SDS011;5458;51.496;7.334;2022-08-01T05:16:42;16.05;;;12.88;;
10811;SDS011;5458;51.496;7.334;2022-08-01T05:19:08;19.83;;;14.02;;
10811;SDS011;5458;51.496;7.334;2022-08-01T05:21:34;17.30;;;12.13;;
10811;SDS011;5458;51.496;7.334;2022-08-01T05:24:00;15.65;;;13.48;;
10811;SDS011;5458;51.496;7.334;2022-08-01T05:26:25;17.63;;;13.43;;
10811;SDS011;5458;51.496;7.334;2022-08-01T05:28:51;13.88;;;12.38;;
10811;SDS011;5458;51.496;7.334;2022-08-01T05:31:17;15.32;;;11.88;;
10811;SDS011;5458;51.496;7.334;2022-08-01T05:33:42;16.23;;;12.13;;
10811;SDS011;5458;51.496;7.334;2022-08-01T05:36:08;16.45;;;13.23;;
10811;SDS011;5458;51.496;7.334;2022-08-01T05:38:34;16.17;;;12.45;;
10811;SDS011;5458;51.496;7.334;2022-08-01T05:40:59;15.02;;;11.93;;
10811;SDS011;5458;51.496;7.334;2022-08-01T05:43:25;14.68;;;11.25;;
10811;SDS011;5458;51.496;7.334;2022-08-01T05:45:51;15.80;;;12.10;;
10811;SDS011;5458;51.496;7.334;2022-08-01T05:48:16;17.38;;;12.27;;
10811;SDS011;5458;51.496;7.334;2022-08-01T05:50:42;16.33;;;12.15;;
10811;SDS011;5458;51.496;7.334;2022-08-01T05:53:07;13.73;;;11.02;;
10811;SDS011;5458;51.496;7.334;2022-08-01T05:55:34;14.40;;;11.10;;
10811;SDS011;5458;51.496;7.334;2022-08-01T05:58:00;14.18;;;10.57;;
10811;SDS011;5458;51.496;7.334;2022-08-01T06:00:26;14.40;;;10.63;;
10811;SDS011;5458;51.496;7.334;2022-08-01T06:02:52;11.55;;;9.10;;
10811;SDS011;5458;51.496;7.334;2022-08-01T06:05:17;14.07;;;9.70;;
10811;SDS011;5458;51.496;7.334;2022-08-01T06:07:43;11.90;;;9.73;;
10811;SDS011;5458;51.496;7.334;2022-08-01T06:10:09;11.40;;;9.57;;
10811;SDS011;5458;51.496;7.334;2022-08-01T06:12:35;13.98;;;10.38;;
10811;SDS011;5458;51.496;7.334;2022-08-01T06:15:01;11.60;;;9.18;;
10811;SDS011;5458;51.496;7.334;2022-08-01T06:17:28;13.82;;;10.52;;
10811;SDS011;5458;51.496;7.334;2022-08-01T06:19:53;12.18;;;9.85;;
10811;SDS011;5458;51.496;7.334;2022-08-01T06:22:19;15.48;;;11.23;;
10811;SDS011;5458;51.496;7.334;2022-08-01T06:24:45;13.93;;;9.88;;
10811;SDS011;5458;51.496;7.334;2022-08-01T06:27:10;15.57;;;11.15;;
10811;SDS011;5458;51.496;7.334;2022-08-01T06:29:36;12.38;;;9.95;;
10811;SDS011;5458;51.496;7.334;2022-08-01T06:32:01;13.30;;;10.00;;
10811;SDS011;5458;51.496;7.334;2022-08-01T06:34:27;11.18;;;9.30;;
10811;SDS011;5458;51.496;7.334;2022-08-01T06:36:53;10.02;;;8.98;;
10811;SDS011;5458;51.496;7.334;2022-08-01T06:39:18;11.63;;;9.20;;
10811;SDS011;5458;51.496;7.334;2022-08-01T06:41:44;10.82;;;8.68;;
10811;SDS011;5458;51.496;7.334;2022-08-01T06:44:12;12.02;;;9.90;;
10811;SDS011;5458;51.496;7.334;2022-08-01T06:46:38;11.50;;;8.85;;
10811;SDS011;5458;51.496;7.334;2022-08-01T06:49:03;11.18;;;9.38;;
10811;SDS011;5458;51.496;7.334;2022-08-01T06:51:29;11.80;;;9.23;;
10811;SDS011;5458;51.496;7.334;2022-08-01T06:53:55;12.85;;;10.38;;
10811;SDS011;5458;51.496;7.334;2022-08-01T06:56:20;12.02;;;9.55;;
10811;SDS011;5458;51.496;7.334;2022-08-01T06:58:46;11.50;;;9.85;;
10811;SDS011;5458;51.496;7.334;2022-08-01T07:01:11;12.85;;;9.80;;
10811;SDS011;5458;51.496;7.334;2022-08-01T07:03:37;11.32;;;8.25;;
10811;SDS011;5458;51.496;7.334;2022-08-01T07:06:03;10.07;;;8.75;;
10811;SDS011;5458;51.496;7.334;2022-08-01T07:08:29;12.23;;;9.60;;
10811;SDS011;5458;51.496;7.334;2022-08-01T07:10:55;13.07;;;9.77;;
10811;SDS011;5458;51.496;7.334;2022-08-01T07:13:24;11.63;;;9.90;;
10811;SDS011;5458;51.496;7.334;2022-08-01T07:15:51;12.10;;;9.93;;
10811;SDS011;5458;51.496;7.334;2022-08-01T07:18:17;10.57;;;8.63;;
10811;SDS011;5458;51.496;7.334;2022-08-01T07:20:43;13.77;;;9.13;;
10811;SDS011;5458;51.496;7.334;2022-08-01T07:23:11;8.57;;;7.63;;
10811;SDS011;5458;51.496;7.334;2022-08-01T07:25:37;8.00;;;6.55;;
10811;SDS011;5458;51.496;7.334;2022-08-01T07:28:03;7.55;;;6.40;;
10811;SDS011;5458;51.496;7.334;2022-08-01T07:30:29;8.10;;;6.40;;
10811;SDS011;5458;51.496;7.334;2022-08-01T07:32:55;6.32;;;5.65;;
10811;SDS011;5458;51.496;7.334;2022-08-01T07:35:20;6.65;;;5.95;;
10811;SDS011;5458;51.496;7.334;2022-08-01T07:37:46;7.35;;;5.90;;
10811;SDS011;5458;51.496;7.334;2022-08-01T07:40:15;6.35;;;5.13;;
10811;SDS011;5458;51.496;7.334;2022-08-01T07:42:42;7.03;;;6.03;;
10811;SDS011;5458;51.496;7.334;2022-08-01T07:45:10;7.40;;;6.53;;
10811;SDS011;5458;51.496;7.334;2022-08-01T07:47:36;9.25;;;5.63;;
10811;SDS011;5458;51.496;7.334;2022-08-01T07:50:03;4.90;;;3.92;;
10811;SDS011;5458;51.496;7.334;2022-08-01T07:52:31;6.35;;;4.00;;
10811;SDS011;5458;51.496;7.334;2022-08-01T07:54:57;4.85;;;3.58;;
10811;SDS011;5458;51.496;7.334;2022-08-01T07:57:24;4.00;;;3.17;;
10811;SDS011;5458;51.496;7.334;2022-08-01T07:59:50;4.80;;;2.92;;
10811;SDS011;5458;51.496;7.334;2022-08-01T08:02:16;2.90;;;2.28;;
10811;SDS011;5458;51.496;7.334;2022-08-01T08:04:42;4.55;;;2.80;;
10811;SDS011;5458;51.496;7.334;2022-08-01T08:07:07;4.28;;;2.88;;
10811;SDS011;5458;51.496;7.334;2022-08-01T08:09:33;4.57;;;3.03;;
10811;SDS011;5458;51.496;7.334;2022-08-01T08:11:59;3.63;;;2.95;;
10811;SDS011;5458;51.496;7.334;2022-08-01T08:14:25;3.97;;;2.53;;
10811;SDS011;5458;51.496;7.334;2022-08-01T08:16:51;4.22;;;2.78;;
10811;SDS011;5458;51.496;7.334;2022-08-01T08:19:16;3.25;;;2.03;;
10811;SDS011;5458;51.496;7.334;2022-08-01T08:21:42;2.83;;;2.08;;
10811;SDS011;5458;51.496;7.334;2022-08-01T08:24:08;3.33;;;3.03;;
10811;SDS011;5458;51.496;7.334;2022-08-01T08:26:47;3.35;;;3.05;;
10811;SDS011;5458;51.496;7.334;2022-08-01T08:29:14;3.53;;;3.10;;
10811;SDS011;5458;51.496;7.334;2022-08-01T08:31:40;3.50;;;3.03;;
10811;SDS011;5458;51.496;7.334;2022-08-01T08:34:06;3.03;;;2.72;;
10811;SDS011;5458;51.496;7.334;2022-08-01T08:36:31;2.38;;;1.95;;
10811;SDS011;5458;51.496;7.334;2022-08-01T08:38:58;2.40;;;2.20;;
10811;SDS011;5458;51.496;7.334;2022-08-01T08:41:26;2.20;;;2.00;;
10811;SDS011;5458;51.496;7.334;2022-08-01T08:43:54;2.45;;;2.08;;
10811;SDS011;5458;51.496;7.334;2022-08-01T08:46:21;3.00;;;1.90;;
10811;SDS011;5458;51.496;7.334;2022-08-01T08:48:49;3.60;;;1.65;;
10811;SDS011;5458;51.496;7.334;2022-08-01T08:51:16;2.10;;;1.63;;
10811;SDS011;5458;51.496;7.334;2022-08-01T08:53:44;1.55;;;1.20;;
10811;SDS011;5458;51.496;7.334;2022-08-01T08:56:12;1.27;;;1.17;;
10811;SDS011;5458;51.496;7.334;2022-08-01T08:58:43;0.98;;;0.90;;
10811;SDS011;5458;51.496;7.334;2022-08-01T09:01:10;0.70;;;0.60;;
10811;SDS011;5458;51.496;7.334;2022-08-01T09:03:37;2.08;;;0.93;;
10811;SDS011;5458;51.496;7.334;2022-08-01T09:06:03;1.13;;;1.02;;
10811;SDS011;5458;51.496;7.334;2022-08-01T09:08:29;1.88;;;1.30;;
10811;SDS011;5458;51.496;7.334;2022-08-01T09:10:55;1.75;;;1.48;;
10811;SDS011;5458;51.496;7.334;2022-08-01T09:13:21;2.67;;;1.67;;
10811;SDS011;5458;51.496;7.334;2022-08-01T09:15:50;2.50;;;2.08;;
10811;SDS011;5458;51.496;7.334;2022-08-01T09:18:37;2.28;;;2.00;;
10811;SDS011;5458;51.496;7.334;2022-08-01T09:23:38;2.95;;;2.63;;
10811;SDS011;5458;51.496;7.334;2022-08-01T09:26:08;4.03;;;2.80;;
10811;SDS011;5458;51.496;7.334;2022-08-01T09:28:34;3.25;;;2.58;;
10811;SDS011;5458;51.496;7.334;2022-08-01T09:31:09;2.75;;;2.25;;
10811;SDS011;5458;51.496;7.334;2022-08-01T09:36:19;1.45;;;1.13;;
10811;SDS011;5458;51.496;7.334;2022-08-01T09:38:46;1.17;;;1.08;;
10811;SDS011;5458;51.496;7.334;2022-08-01T09:41:12;1.08;;;0.80;;
10811;SDS011;5458;51.496;7.334;2022-08-01T09:43:38;0.75;;;0.75;;
10811;SDS011;5458;51.496;7.334;2022-08-01T09:46:04;1.90;;;1.15;;
10811;SDS011;5458;51.496;7.334;2022-08-01T09:48:35;0.80;;;0.70;;
10811;SDS011;5458;51.496;7.334;2022-08-01T09:51:04;0.77;;;0.77;;
10811;SDS011;5458;51.496;7.334;2022-08-01T09:53:44;3.10;;;0.90;;
10811;SDS011;5458;51.496;7.334;2022-08-01T09:56:12;1.58;;;0.80;;
10811;SDS011;5458;51.496;7.334;2022-08-01T09:58:51;3.50;;;1.33;;
10811;SDS011;5458;51.496;7.334;2022-08-01T10:01:21;0.77;;;0.77;;
10811;SDS011;5458;51.496;7.334;2022-08-01T10:03:55;1.73;;;1.42;;
10811;SDS011;5458;51.496;7.334;2022-08-01T10:06:33;1.27;;;0.60;;
10811;SDS011;5458;51.496;7.334;2022-08-01T10:08:58;0.60;;;0.60;;
10811;SDS011;5458;51.496;7.334;2022-08-01T10:11:24;0.80;;;0.80;;
10811;SDS011;5458;51.496;7.334;2022-08-01T10:13:50;0.75;;;0.68;;
10811;SDS011;5458;51.496;7.334;2022-08-01T10:16:16;1.50;;;0.70;;
10811;SDS011;5458;51.496;7.334;2022-08-01T10:18:42;1.20;;;0.50;;
10811;SDS011;5458;51.496;7.334;2022-08-01T10:21:10;0.70;;;0.70;;
10811;SDS011;5458;51.496;7.334;2022-08-01T10:23:36;0.82;;;0.52;;
10811;SDS011;5458;51.496;7.334;2022-08-01T10:26:04;1.20;;;0.90;;
10811;SDS011;5458;51.496;7.334;2022-08-01T10:28:31;1.65;;;0.63;;
10811;SDS011;5458;51.496;7.334;2022-08-01T10:30:59;1.40;;;0.75;;
10811;SDS011;5458;51.496;7.334;2022-08-01T10:33:26;1.08;;;0.98;;
10811;SDS011;5458;51.496;7.334;2022-08-01T10:35:53;2.28;;;0.60;;
10811;SDS011;5458;51.496;7.334;2022-08-01T10:38:18;0.60;;;0.45;;
10811;SDS011;5458;51.496;7.334;2022-08-01T10:40:44;0.70;;;0.60;;
10811;SDS011;5458;51.496;7.334;2022-08-01T10:43:10;0.68;;;0.60;;
10811;SDS011;5458;51.496;7.334;2022-08-01T10:45:37;0.50;;;0.50;;
10811;SDS011;5458;51.496;7.334;2022-08-01T10:48:26;2.88;;;0.85;;
10811;SDS011;5458;51.496;7.334;2022-08-01T10:51:00;0.93;;;0.88;;
10811;SDS011;5458;51.496;7.334;2022-08-01T10:53:29;1.42;;;0.80;;
10811;SDS011;5458;51.496;7.334;2022-08-01T10:58:31;0.65;;;0.65;;
10811;SDS011;5458;51.496;7.334;2022-08-01T11:01:12;1.50;;;0.65;;
10811;SDS011;5458;51.496;7.334;2022-08-01T11:03:41;0.70;;;0.70;;
10811;SDS011;5458;51.496;7.334;2022-08-01T11:06:17;0.82;;;0.73;;
10811;SDS011;5458;51.496;7.334;2022-08-01T11:08:50;0.70;;;0.65;;
10811;SDS011;5458;51.496;7.334;2022-08-01T11:11:17;0.70;;;0.70;;
10811;SDS011;5458;51.496;7.334;2022-08-01T11:16:32;1.10;;;0.45;;
10811;SDS011;5458;51.496;7.334;2022-08-01T11:19:03;1.20;;;0.88;;
10811;SDS011;5458;51.496;7.334;2022-08-01T11:27:15;1.42;;;0.80;;
10811;SDS011;5458;51.496;7.334;2022-08-01T11:32:33;1.67;;;0.50;;
10811;SDS011;5458;51.496;7.334;2022-08-01T11:35:11;0.40;;;0.40;;
10811;SDS011;5458;51.496;7.334;2022-08-01T11:37:37;1.05;;;0.40;;
10811;SDS011;5458;51.496;7.334;2022-08-01T11:40:22;0.30;;;0.30;;
10811;SDS011;5458;51.496;7.334;2022-08-01T11:42:50;0.68;;;0.30;;
10811;SDS011;5458;51.496;7.334;2022-08-01T11:45:47;0.52;;;0.30;;
10811;SDS011;5458;51.496;7.334;2022-08-01T11:51:08;0.82;;;0.40;;
10811;SDS011;5458;51.496;7.334;2022-08-01T11:53:47;0.30;;;0.30;;
10811;SDS011;5458;51.496;7.334;2022-08-01T11:56:14;0.30;;;0.30;;
10811;SDS011;5458;51.496;7.334;2022-08-01T11:58:41;0.40;;;0.30;;
10811;SDS011;5458;51.496;7.334;2022-08-01T12:01:07;0.20;;;0.20;;
10811;SDS011;5458;51.496;7.334;2022-08-01T12:03:37;0.75;;;0.20;;
10811;SDS011;5458;51.496;7.334;2022-08-01T12:06:03;0.40;;;0.40;;
10811;SDS011;5458;51.496;7.334;2022-08-01T12:08:30;0.30;;;0.30;;
10811;SDS011;5458;51.496;7.334;2022-08-01T12:11:02;0.88;;;0.40;;
10811;SDS011;5458;51.496;7.334;2022-08-01T12:13:41;0.68;;;0.50;;
10811;SDS011;5458;51.496;7.334;2022-08-01T12:16:08;0.20;;;0.20;;
10811;SDS011;5458;51.496;7.334;2022-08-01T12:18:38;0.50;;;0.30;;
10811;SDS011;5458;51.496;7.334;2022-08-01T12:21:05;0.35;;;0.20;;
10811;SDS011;5458;51.496;7.334;2022-08-01T12:23:31;0.60;;;0.30;;
10811;SDS011;5458;51.496;7.334;2022-08-01T12:25:56;0.60;;;0.40;;
10811;SDS011;5458;51.496;7.334;2022-08-01T12:28:22;0.30;;;0.30;;
10811;SDS011;5458;51.496;7.334;2022-08-01T12:30:48;0.30;;;0.30;;
10811;SDS011;5458;51.496;7.334;2022-08-01T12:33:17;0.32;;;0.32;;
10811;SDS011;5458;51.496;7.334;2022-08-01T12:35:43;0.20;;;0.20;;
10811;SDS011;5458;51.496;7.334;2022-08-01T12:38:16;0.20;;;0.20;;
10811;SDS011;5458;51.496;7.334;2022-08-01T12:40:44;2.00;;;0.40;;
10811;SDS011;5458;51.496;7.334;2022-08-01T12:43:15;0.38;;;0.30;;
10811;SDS011;5458;51.496;7.334;2022-08-01T12:45:43;1.20;;;0.50;;
10811;SDS011;5458;51.496;7.334;2022-08-01T12:48:14;0.47;;;0.40;;
10811;SDS011;5458;51.496;7.334;2022-08-01T12:50:41;0.65;;;0.40;;
10811;SDS011;5458;51.496;7.334;2022-08-01T12:53:10;0.40;;;0.40;;
10811;SDS011;5458;51.496;7.334;2022-08-01T12:55:47;0.95;;;0.40;;
10811;SDS011;5458;51.496;7.334;2022-08-01T12:58:18;0.52;;;0.30;;
10811;SDS011;5458;51.496;7.334;2022-08-01T13:00:45;0.38;;;0.38;;
10811;SDS011;5458;51.496;7.334;2022-08-01T13:03:13;0.30;;;0.30;;
10811;SDS011;5458;51.496;7.334;2022-08-01T13:05:40;0.75;;;0.50;;
10811;SDS011;5458;51.496;7.334;2022-08-01T13:08:10;0.40;;;0.40;;
10811;SDS011;5458;51.496;7.334;2022-08-01T13:10:40;0.65;;;0.40;;
10811;SDS011;5458;51.496;7.334;2022-08-01T13:13:06;0.50;;;0.38;;
10811;SDS011;5458;51.496;7.334;2022-08-01T13:15:34;0.45;;;0.45;;
10811;SDS011;5458;51.496;7.334;2022-08-01T13:18:21;1.40;;;0.45;;
10811;SDS011;5458;51.496;7.334;2022-08-01T13:20:48;0.55;;;0.45;;
10811;SDS011;5458;51.496;7.334;2022-08-01T13:23:14;0.68;;;0.52;;
10811;SDS011;5458;51.496;7.334;2022-08-01T13:25:48;0.40;;;0.40;;
10811;SDS011;5458;51.496;7.334;2022-08-01T13:28:20;1.08;;;0.47;;
10811;SDS011;5458;51.496;7.334;2022-08-01T13:30:50;0.90;;;0.50;;
10811;SDS011;5458;51.496;7.334;2022-08-01T13:33:21;0.47;;;0.47;;
10811;SDS011;5458;51.496;7.334;2022-08-01T13:35:48;0.63;;;0.60;;
10811;SDS011;5458;51.496;7.334;2022-08-01T13:38:15;1.48;;;0.60;;
10811;SDS011;5458;51.496;7.334;2022-08-01T13:40:40;2.50;;;1.30;;
10811;SDS011;5458;51.496;7.334;2022-08-01T13:43:06;2.42;;;0.73;;
10811;SDS011;5458;51.496;7.334;2022-08-01T13:45:31;0.50;;;0.50;;
10811;SDS011;5458;51.496;7.334;2022-08-01T13:47:58;2.05;;;0.60;;
10811;SDS011;5458;51.496;7.334;2022-08-01T13:50:24;1.15;;;0.82;;
10811;SDS011;5458;51.496;7.334;2022-08-01T13:52:49;1.00;;;0.70;;
10811;SDS011;5458;51.496;7.334;2022-08-01T13:55:15;0.60;;;0.60;;
10811;SDS011;5458;51.496;7.334;2022-08-01T13:57:41;0.63;;;0.52;;
10811;SDS011;5458;51.496;7.334;2022-08-01T14:00:07;1.20;;;0.60;;
10811;SDS011;5458;51.496;7.334;2022-08-01T14:02:34;1.30;;;0.60;;
10811;SDS011;5458;51.496;7.334;2022-08-01T14:05:00;0.50;;;0.50;;
10811;SDS011;5458;51.496;7.334;2022-08-01T14:07:26;1.10;;;0.63;;
10811;SDS011;5458;51.496;7.334;2022-08-01T14:09:52;1.40;;;0.57;;
10811;SDS011;5458;51.496;7.334;2022-08-01T14:12:18;0.60;;;0.60;;
10811;SDS011;5458;51.496;7.334;2022-08-01T14:14:43;0.73;;;0.60;;
10811;SDS011;5458;51.496;7.334;2022-08-01T14:17:09;1.15;;;0.60;;
10811;SDS011;5458;51.496;7.334;2022-08-01T14:19:34;1.50;;;0.70;;
10811;SDS011;5458;51.496;7.334;2022-08-01T14:22:00;1.38;;;0.60;;
10811;SDS011;5458;51.496;7.334;2022-08-01T14:24:26;0.50;;;0.50;;
10811;SDS011;5458;51.496;7.334;2022-08-01T14:26:52;0.77;;;0.68;;
10811;SDS011;5458;51.496;7.334;2022-08-01T14:29:18;5.68;;;1.08;;
10811;SDS011;5458;51.496;7.334;2022-08-01T14:31:43;0.60;;;0.60;;
10811;SDS011;5458;51.496;7.334;2022-08-01T14:34:09;1.33;;;0.63;;
10811;SDS011;5458;51.496;7.334;2022-08-01T14:36:35;4.03;;;0.75;;
10811;SDS011;5458;51.496;7.334;2022-08-01T14:39:00;1.45;;;0.60;;
10811;SDS011;5458;51.496;7.334;2022-08-01T14:41:26;1.10;;;0.77;;
10811;SDS011;5458;51.496;7.334;2022-08-01T14:43:52;1.23;;;0.95;;
10811;SDS011;5458;51.496;7.334;2022-08-01T14:46:18;1.15;;;0.70;;
10811;SDS011;5458;51.496;7.334;2022-08-01T14:48:44;1.92;;;0.93;;
10811;SDS011;5458;51.496;7.334;2022-08-01T14:51:09;1.58;;;0.77;;
10811;SDS011;5458;51.496;7.334;2022-08-01T14:53:35;1.10;;;0.60;;
10811;SDS011;5458;51.496;7.334;2022-08-01T14:56:03;1.95;;;0.70;;
10811;SDS011;5458;51.496;7.334;2022-08-01T14:58:29;0.60;;;0.60;;
10811;SDS011;5458;51.496;7.334;2022-08-01T15:00:54;1.85;;;0.98;;
10811;SDS011;5458;51.496;7.334;2022-08-01T15:03:20;1.00;;;0.80;;
10811;SDS011;5458;51.496;7.334;2022-08-01T15:05:47;0.90;;;0.90;;
10811;SDS011;5458;51.496;7.334;2022-08-01T15:08:12;2.17;;;0.82;;
10811;SDS011;5458;51.496;7.334;2022-08-01T15:10:38;1.45;;;0.80;;
10811;SDS011;5458;51.496;7.334;2022-08-01T15:13:04;1.70;;;0.90;;
10811;SDS011;5458;51.496;7.334;2022-08-01T15:15:29;1.77;;;0.70;;
10811;SDS011;5458;51.496;7.334;2022-08-01T15:17:55;2.92;;;0.90;;
10811;SDS011;5458;51.496;7.334;2022-08-01T15:20:21;3.50;;;1.08;;
10811;SDS011;5458;51.496;7.334;2022-08-01T15:22:47;1.17;;;0.90;;
10811;SDS011;5458;51.496;7.334;2022-08-01T15:25:13;2.38;;;0.80;;